Time;durP1;ratioP1;P1;durP2;ratioP2;P2;SDS_P1;SDS_P2;PMS_P1;PMS_P2;Temp;Humidity;BMP_temperature;BMP_pressure;BME280_temperature;BME280_humidity;BME280_pressure;Samples;Min_cycle;Max_cycle;Signal;HPM_P1;HPM_P2
2022/01/11 00:01:13;;;;;;;19.42;10.98;;;;;;;1.18;77.00;100931.53;5098142;28;20028;-72
2022/01/11 00:03:40;;;;;;;18.17;9.98;;;;;;;1.21;76.55;100939.34;5099490;28;20043;-72
2022/01/11 00:08:39;;;;;;;19.35;10.18;;;;;;;1.21;76.64;100942.00;5103503;28;20038;-72
2022/01/11 00:11:05;;;;;;;17.63;10.00;;;;;;;1.23;76.08;100946.28;5094760;28;20077;-71
2022/01/11 00:13:36;;;;;;;19.17;10.10;;;;;;;1.23;75.74;100950.72;5096092;28;20106;-72
2022/01/11 00:16:02;;;;;;;19.33;10.30;;;;;;;1.15;75.62;100935.16;5098674;28;20023;-72
2022/01/11 00:18:28;;;;;;;19.42;10.27;;;;;;;1.24;75.74;100947.16;5105999;28;20058;-72
2022/01/11 00:20:54;;;;;;;20.08;11.45;;;;;;;1.25;75.19;100957.66;5100570;28;20019;-72
2022/01/11 00:25:50;;;;;;;16.35;9.30;;;;;;;1.26;75.33;100962.00;5100844;28;20522;-72
2022/01/11 00:28:18;;;;;;;18.75;9.23;;;;;;;1.27;74.56;100968.16;5093550;28;20038;-70
2022/01/11 00:30:46;;;;;;;19.98;10.18;;;;;;;1.25;74.73;100970.88;5100115;28;20030;-72
2022/01/11 00:33:17;;;;;;;19.35;10.43;;;;;;;1.23;73.96;100970.06;5100150;28;20099;-72
2022/01/11 00:35:45;;;;;;;18.40;9.73;;;;;;;1.25;74.73;100981.44;5098650;28;20023;-72
2022/01/11 00:38:16;;;;;;;21.30;10.82;;;;;;;1.25;75.08;100986.72;5105497;28;20023;-71
2022/01/11 00:40:55;;;;;;;18.15;10.23;;;;;;;1.27;74.72;100994.59;5103590;28;20031;-72
2022/01/11 00:43:23;;;;;;;15.68;9.75;;;;;;;1.26;74.67;100984.94;5094987;28;20050;-71
2022/01/11 00:45:50;;;;;;;21.13;10.02;;;;;;;1.20;74.43;100988.69;5100980;28;20016;-72
2022/01/11 00:48:16;;;;;;;16.13;9.38;;;;;;;1.19;74.29;100979.03;5099928;28;20020;-72
2022/01/11 00:50:42;;;;;;;18.20;9.95;;;;;;;1.15;74.32;100980.06;5100200;28;20030;-71
2022/01/11 00:53:09;;;;;;;16.05;9.65;;;;;;;1.23;73.86;100985.06;5096885;28;20039;-72
2022/01/11 00:55:35;;;;;;;17.17;9.73;;;;;;;1.24;73.93;101000.00;5100644;28;20043;-72
2022/01/11 00:58:02;;;;;;;19.55;10.38;;;;;;;1.15;73.88;100988.00;5101176;28;20519;-71
2022/01/11 01:00:29;;;;;;;17.15;10.30;;;;;;;1.19;73.97;100994.88;5098588;28;20444;-72
2022/01/11 01:02:55;;;;;;;16.55;9.90;;;;;;;1.26;73.85;101004.28;5105367;28;21645;-71
2022/01/11 01:05:21;;;;;;;16.33;8.80;;;;;;;1.24;73.79;101000.88;5102092;28;20019;-71
2022/01/11 01:07:48;;;;;;;17.60;9.73;;;;;;;1.20;73.38;100999.28;5100271;28;20024;-71
2022/01/11 01:10:29;;;;;;;21.83;9.50;;;;;;;1.21;73.75;101008.03;5099024;28;20055;-71
2022/01/11 01:12:56;;;;;;;16.15;9.23;;;;;;;1.25;73.59;101012.25;5102379;28;20028;-71
2022/01/11 01:15:23;;;;;;;18.08;9.90;;;;;;;1.21;74.09;101006.25;5099619;28;20016;-71
2022/01/11 01:17:49;;;;;;;15.80;9.15;;;;;;;1.18;73.12;101003.72;5098961;28;20046;-71
2022/01/11 01:20:15;;;;;;;20.90;9.85;;;;;;;1.22;73.06;101015.03;5100205;28;20099;-66
2022/01/11 01:22:41;;;;;;;15.85;9.10;;;;;;;1.25;73.71;101015.78;5104062;27;20114;-68
2022/01/11 01:25:07;;;;;;;16.77;9.23;;;;;;;1.25;73.60;101022.84;5105198;28;20619;-66
2022/01/11 01:27:33;;;;;;;19.40;10.55;;;;;;;1.23;73.30;101020.25;5093138;28;20108;-67
2022/01/11 01:29:59;;;;;;;19.77;9.52;;;;;;;1.24;73.51;101032.56;5092627;28;20035;-67
2022/01/11 01:32:25;;;;;;;21.25;10.15;;;;;;;1.12;73.21;101009.25;5093881;28;20081;-67
2022/01/11 01:34:51;;;;;;;18.35;9.15;;;;;;;1.15;73.08;101021.47;5094517;28;20027;-67
2022/01/11 01:37:17;;;;;;;18.92;10.70;;;;;;;1.19;72.96;101026.59;5101822;28;20032;-67
2022/01/11 01:39:43;;;;;;;19.40;10.55;;;;;;;1.18;73.30;101032.78;5090172;28;20046;-66
2022/01/11 01:42:11;;;;;;;15.82;9.02;;;;;;;1.15;73.14;101030.25;5098498;28;20819;-67
2022/01/11 01:44:38;;;;;;;20.77;11.07;;;;;;;1.15;73.09;101038.19;5097600;28;20119;-67
2022/01/11 01:47:04;;;;;;;17.35;9.52;;;;;;;1.02;73.55;101021.09;5094941;28;20035;-67
2022/01/11 01:49:31;;;;;;;20.13;10.00;;;;;;;1.12;73.65;101034.78;5095129;28;20100;-68
2022/01/11 01:51:57;;;;;;;22.48;10.52;;;;;;;1.16;73.67;101053.13;5087164;28;20024;-67
2022/01/11 01:54:24;;;;;;;19.25;9.57;;;;;;;1.14;72.82;101052.34;5092379;28;20122;-66
2022/01/11 01:56:50;;;;;;;18.70;9.77;;;;;;;1.05;72.76;101042.09;5093164;28;20020;-67
2022/01/11 01:59:16;;;;;;;16.20;9.55;;;;;;;0.99;72.89;101028.25;5100622;28;20069;-66
2022/01/11 02:01:46;;;;;;;20.35;10.95;;;;;;;1.06;73.10;101037.69;5101222;28;20039;-67
2022/01/11 02:04:15;;;;;;;18.67;10.93;;;;;;;1.07;72.89;101053.47;5090172;28;20020;-67
2022/01/11 02:06:40;;;;;;;18.25;10.20;;;;;;;1.08;72.90;101063.13;5098079;28;20028;-67
2022/01/11 02:09:06;;;;;;;20.42;10.25;;;;;;;1.08;72.92;101063.13;5090275;28;20508;-67
2022/01/11 02:11:32;;;;;;;20.33;9.93;;;;;;;1.06;72.88;101059.66;5094134;28;20073;-66
2022/01/11 02:13:58;;;;;;;17.50;8.98;;;;;;;1.03;72.52;101056.28;5086749;28;20498;-67
2022/01/11 02:16:24;;;;;;;21.13;10.13;;;;;;;1.08;72.49;101064.88;5102210;28;20036;-67
2022/01/11 02:18:51;;;;;;;17.25;9.23;;;;;;;1.06;72.95;101058.81;5094612;28;20038;-67
2022/01/11 02:21:17;;;;;;;20.75;10.25;;;;;;;1.04;72.85;101058.88;5095865;28;20072;-66
2022/01/11 02:23:43;;;;;;;19.98;10.70;;;;;;;1.05;72.86;101067.63;5098099;28;20484;-72
2022/01/11 02:26:09;;;;;;;21.05;10.23;;;;;;;1.04;72.70;101058.88;5097558;28;20111;-72
2022/01/11 02:28:35;;;;;;;18.45;9.57;;;;;;;0.96;72.78;101053.00;5098943;28;20047;-72
2022/01/11 02:31:07;;;;;;;19.92;10.15;;;;;;;1.02;73.12;101063.34;5101583;28;20500;-70
2022/01/11 02:33:35;;;;;;;19.17;9.88;;;;;;;1.01;73.22;101069.56;5098901;28;20490;-72
2022/01/11 02:36:13;;;;;;;20.15;10.63;;;;;;;1.00;73.33;101069.59;5094012;28;20032;-72
2022/01/11 02:38:39;;;;;;;20.52;10.40;;;;;;;1.01;73.19;101066.03;5096515;28;20044;-67
2022/01/11 02:41:04;;;;;;;19.83;9.30;;;;;;;0.95;73.38;101067.13;5090441;28;20080;-67
2022/01/11 02:43:30;;;;;;;18.13;9.70;;;;;;;0.94;73.56;101060.13;5099557;28;20040;-66
2022/01/11 02:45:58;;;;;;;19.88;9.98;;;;;;;0.99;73.64;101073.16;5093811;28;20027;-67
2022/01/11 02:48:24;;;;;;;20.23;10.57;;;;;;;0.99;73.66;101075.78;5099099;28;20032;-68
2022/01/11 02:50:50;;;;;;;15.77;8.98;;;;;;;0.99;73.66;101081.94;5107462;28;20032;-67
2022/01/11 02:53:17;;;;;;;18.75;10.25;;;;;;;0.92;73.54;101071.66;5098324;28;20080;-66
2022/01/11 02:55:43;;;;;;;16.23;9.10;;;;;;;1.00;73.56;101088.09;5095403;28;20040;-67
2022/01/11 02:58:13;;;;;;;17.63;9.68;;;;;;;0.98;73.39;101085.50;5090049;28;20064;-67
2022/01/11 03:00:39;;;;;;;18.15;9.38;;;;;;;0.97;72.94;101083.75;5103432;28;20083;-66
2022/01/11 03:03:11;;;;;;;15.85;9.13;;;;;;;0.97;72.95;101094.31;5107805;28;20027;-67
2022/01/11 03:05:37;;;;;;;19.45;9.10;;;;;;;0.96;72.99;101099.66;5110118;28;20028;-67
2022/01/11 03:08:02;;;;;;;18.80;10.15;;;;;;;0.97;72.63;101104.06;5107695;27;20027;-72
2022/01/11 03:10:36;;;;;;;18.05;9.45;;;;;;;0.95;72.83;101095.31;5102507;28;20153;-67
2022/01/11 03:13:05;;;;;;;16.23;8.82;;;;;;;0.96;72.67;101102.31;5106784;28;20782;-67
2022/01/11 03:15:32;;;;;;;18.75;9.43;;;;;;;0.96;72.36;101108.47;5103887;28;20043;-67
2022/01/11 03:17:57;;;;;;;17.25;8.85;;;;;;;0.95;72.43;101097.94;5101505;28;20051;-68
2022/01/11 03:20:23;;;;;;;21.00;10.00;;;;;;;0.95;72.05;101112.03;5092352;28;20043;-66
2022/01/11 03:22:48;;;;;;;15.95;9.02;;;;;;;0.97;72.00;101106.69;5107743;28;20050;-67
2022/01/11 03:25:14;;;;;;;20.25;9.50;;;;;;;0.93;71.98;101100.66;5097875;28;20042;-67
2022/01/11 03:27:41;;;;;;;16.33;8.77;;;;;;;0.95;71.96;101103.22;5092898;28;20652;-67
2022/01/11 03:30:08;;;;;;;18.98;9.90;;;;;;;0.92;71.59;101104.22;5101687;28;20031;-67
2022/01/11 03:32:33;;;;;;;16.58;8.35;;;;;;;0.91;71.75;101101.63;5101824;28;20039;-67
2022/01/11 03:34:59;;;;;;;17.52;9.80;;;;;;;0.94;71.54;101107.66;5106987;28;20032;-67
2022/01/11 03:37:24;;;;;;;17.00;8.60;;;;;;;0.86;71.52;101091.22;5097574;28;20392;-66
2022/01/11 03:39:50;;;;;;;20.15;9.30;;;;;;;0.90;71.66;101100.75;5108781;28;20055;-67
2022/01/11 03:42:15;;;;;;;17.25;8.82;;;;;;;0.79;71.65;101089.72;5096427;28;20110;-67
2022/01/11 03:44:41;;;;;;;20.35;9.13;;;;;;;0.84;71.38;101106.25;5106754;28;20032;-67
2022/01/11 03:47:07;;;;;;;19.75;9.63;;;;;;;0.87;71.73;101100.84;5089362;28;20059;-67
2022/01/11 03:49:33;;;;;;;19.58;9.50;;;;;;;0.87;71.91;101105.31;5101165;28;20399;-67
2022/01/11 03:51:58;;;;;;;20.10;10.20;;;;;;;0.86;71.83;101109.72;5097664;28;20035;-67
2022/01/11 03:54:27;;;;;;;18.45;9.52;;;;;;;0.83;71.71;101109.81;5097296;28;20056;-67
2022/01/11 03:56:53;;;;;;;16.95;8.95;;;;;;;0.86;71.83;101114.13;5095649;28;20032;-66
2022/01/11 03:59:19;;;;;;;18.25;9.82;;;;;;;0.86;71.97;101117.63;5107476;28;20039;-66
2022/01/11 04:01:45;;;;;;;18.73;9.48;;;;;;;0.85;71.88;101122.97;5104750;28;20028;-67
2022/01/11 04:04:11;;;;;;;17.27;9.02;;;;;;;0.84;72.03;101118.59;5104508;28;20118;-66
2022/01/11 04:06:38;;;;;;;17.90;9.27;;;;;;;0.81;72.13;101116.91;5107891;28;20775;-67
2022/01/11 04:09:08;;;;;;;19.33;9.70;;;;;;;0.85;71.81;101125.59;5095288;28;20391;-66
2022/01/11 04:11:35;;;;;;;17.05;8.52;;;;;;;0.80;72.29;101120.47;5107056;28;20039;-67
2022/01/11 04:14:00;;;;;;;18.58;10.13;;;;;;;0.83;71.96;101127.41;5104192;28;20034;-67
2022/01/11 04:16:26;;;;;;;17.23;9.23;;;;;;;0.84;72.01;101126.53;5102059;28;20019;-68
2022/01/11 04:18:51;;;;;;;20.13;10.70;;;;;;;0.84;72.24;101137.09;5094003;28;20024;-67
2022/01/11 04:21:17;;;;;;;19.08;9.93;;;;;;;0.83;72.65;101140.63;5094057;28;20031;-67
2022/01/11 04:23:43;;;;;;;19.00;9.55;;;;;;;0.84;72.67;101153.78;5103190;28;20032;-66
2022/01/11 04:26:09;;;;;;;20.90;9.98;;;;;;;0.84;72.76;101153.78;5100939;28;20039;-67
2022/01/11 04:28:37;;;;;;;20.90;10.60;;;;;;;0.84;72.54;101148.50;5100741;28;20651;-67
2022/01/11 04:31:02;;;;;;;19.60;10.52;;;;;;;0.83;72.89;101156.47;5089130;28;20028;-67
2022/01/11 04:33:30;;;;;;;20.77;10.80;;;;;;;0.81;72.68;101156.50;5098127;28;20040;-66
2022/01/11 04:35:57;;;;;;;21.60;10.68;;;;;;;0.70;72.69;101134.91;5100340;28;20023;-66
2022/01/11 04:38:25;;;;;;;19.95;10.80;;;;;;;0.82;72.56;101160.91;5106432;28;20031;-67
2022/01/11 04:40:51;;;;;;;17.52;9.32;;;;;;;0.76;72.50;101155.81;5107370;28;20093;-67
2022/01/11 04:43:17;;;;;;;18.63;10.00;;;;;;;0.81;72.61;101167.06;5102677;28;20372;-67
2022/01/11 04:45:42;;;;;;;22.77;10.30;;;;;;;0.66;72.59;101151.78;5096068;28;20034;-66
2022/01/11 04:48:08;;;;;;;20.48;10.70;;;;;;;0.76;72.34;101166.38;5095422;28;20036;-67
2022/01/11 04:50:33;;;;;;;20.50;10.88;;;;;;;0.80;72.83;101189.13;5088722;28;20050;-68
2022/01/11 04:52:59;;;;;;;20.20;10.48;;;;;;;0.76;72.67;101174.31;5093423;28;20445;-66
2022/01/11 04:55:26;;;;;;;17.08;9.40;;;;;;;0.81;72.50;101190.00;5093067;28;20028;-68
2022/01/11 04:57:52;;;;;;;18.23;9.68;;;;;;;0.81;72.47;101190.00;5104230;28;20031;-67
2022/01/11 05:00:19;;;;;;;18.42;9.95;;;;;;;0.76;72.67;101189.28;5099478;28;20053;-68
2022/01/11 05:02:46;;;;;;;19.23;9.82;;;;;;;0.84;72.48;101203.94;5103560;28;20024;-67
2022/01/11 05:05:12;;;;;;;20.27;9.55;;;;;;;0.83;72.88;101193.44;5095940;28;20032;-68
2022/01/11 05:07:38;;;;;;;19.15;10.45;;;;;;;0.84;72.90;101205.72;5090241;28;20077;-68
2022/01/11 05:10:04;;;;;;;19.70;10.07;;;;;;;0.85;72.58;101200.41;5091746;28;20035;-69
2022/01/11 05:12:31;;;;;;;20.35;9.75;;;;;;;0.85;72.56;101208.31;5095236;28;20055;-67
2022/01/11 05:14:56;;;;;;;22.90;10.98;;;;;;;0.85;72.40;101208.31;5106543;28;20023;-68
2022/01/11 05:17:22;;;;;;;20.40;10.25;;;;;;;0.85;72.07;101215.38;5092845;28;20629;-68
2022/01/11 05:19:47;;;;;;;20.40;10.55;;;;;;;0.88;72.32;101207.34;5092687;28;20097;-67
2022/01/11 05:22:13;;;;;;;20.88;11.23;;;;;;;0.90;72.66;101216.94;5100645;28;20032;-73
2022/01/11 05:24:38;;;;;;;19.92;9.73;;;;;;;0.93;72.70;101226.56;5092910;28;20031;-72
2022/01/11 05:27:04;;;;;;;19.67;10.57;;;;;;;0.90;72.74;101224.84;5102951;28;20494;-73
2022/01/11 05:29:31;;;;;;;17.33;9.68;;;;;;;0.84;72.64;101213.66;5100114;28;20024;-73
2022/01/11 05:31:58;;;;;;;21.52;10.70;;;;;;;0.91;72.49;101228.38;5099801;28;20020;-71
2022/01/11 05:34:27;;;;;;;21.80;11.50;;;;;;;0.85;72.35;101229.44;5099982;28;20463;-73
2022/01/11 05:36:52;;;;;;;21.00;10.43;;;;;;;0.91;72.46;101239.81;5096933;28;20043;-72
2022/01/11 05:39:18;;;;;;;21.77;10.20;;;;;;;0.90;72.13;101238.06;5100626;28;20625;-72
2022/01/11 05:41:44;;;;;;;20.10;10.38;;;;;;;0.91;72.00;101247.72;5106007;28;20092;-73
2022/01/11 05:44:09;;;;;;;23.00;10.88;;;;;;;0.96;72.10;101250.19;5104772;28;20095;-73
2022/01/11 05:46:35;;;;;;;21.02;10.55;;;;;;;0.97;71.94;101252.78;5102290;28;20031;-73
2022/01/11 05:49:00;;;;;;;18.95;9.80;;;;;;;0.95;71.84;101251.97;5101246;28;20076;-72
2022/01/11 05:51:28;;;;;;;19.23;10.52;;;;;;;0.94;70.57;101255.56;5101278;28;20032;-73
2022/01/11 05:53:55;;;;;;;19.90;10.30;;;;;;;0.93;70.44;101266.16;5102980;28;20107;-72
2022/01/11 05:56:20;;;;;;;20.17;10.52;;;;;;;0.88;70.46;101255.75;5096823;28;20035;-71
2022/01/11 05:58:46;;;;;;;19.35;10.50;;;;;;;0.91;70.57;101266.22;5104236;28;20054;-72
2022/01/11 06:01:13;;;;;;;19.73;10.85;;;;;;;0.91;70.38;101265.34;5105685;28;20077;-73
2022/01/11 06:03:39;;;;;;;20.20;10.23;;;;;;;0.87;70.20;101266.38;5099760;28;20062;-73
2022/01/11 06:06:05;;;;;;;22.95;10.25;;;;;;;0.90;70.52;101277.66;5104326;28;20043;-68
2022/01/11 06:08:30;;;;;;;21.17;11.00;;;;;;;0.94;69.75;101276.69;5100256;28;20024;-67
2022/01/11 06:10:57;;;;;;;20.90;10.48;;;;;;;0.92;69.91;101277.63;5107303;28;20031;-67
2022/01/11 06:13:23;;;;;;;20.98;10.18;;;;;;;0.90;69.71;101282.94;5100474;28;20047;-67
2022/01/11 06:15:49;;;;;;;17.77;9.52;;;;;;;0.88;69.54;101282.16;5114732;28;20110;-72
2022/01/11 06:18:14;;;;;;;18.80;10.05;;;;;;;0.86;69.50;101289.25;5100673;28;20039;-73
2022/01/11 06:20:40;;;;;;;18.88;9.38;;;;;;;0.85;69.30;101290.19;5107819;28;20482;-73
2022/01/11 06:23:05;;;;;;;19.38;10.77;;;;;;;0.81;69.17;101287.69;5105060;28;20080;-73
2022/01/11 06:25:30;;;;;;;19.10;9.85;;;;;;;0.86;69.33;101299.81;5105394;28;20039;-73
2022/01/11 06:27:56;;;;;;;18.58;10.13;;;;;;;0.80;69.75;101288.59;5110030;28;20098;-71
2022/01/11 06:30:21;;;;;;;17.48;10.40;;;;;;;0.87;70.15;101309.44;5108831;28;20027;-73
2022/01/11 06:32:47;;;;;;;20.90;10.23;;;;;;;0.89;69.55;101307.63;5107307;28;20032;-72
2022/01/11 06:35:16;;;;;;;19.00;9.65;;;;;;;0.86;69.51;101309.50;5100334;28;20035;-73
2022/01/11 06:37:41;;;;;;;20.27;10.68;;;;;;;0.85;69.05;101300.72;5103355;28;20024;-72
2022/01/11 06:40:08;;;;;;;22.23;11.05;;;;;;;0.84;68.93;101311.34;5100399;28;20369;-72
2022/01/11 06:42:34;;;;;;;22.33;10.27;;;;;;;0.88;69.26;101318.25;5103221;28;20081;-72
2022/01/11 06:45:00;;;;;;;17.63;9.60;;;;;;;0.87;69.36;101320.00;5096312;28;20028;-72
2022/01/11 06:47:25;;;;;;;19.10;9.63;;;;;;;0.89;69.60;101327.88;5106620;28;20027;-72
2022/01/11 06:49:51;;;;;;;19.08;10.15;;;;;;;0.88;69.38;101331.44;5105922;28;20051;-72
2022/01/11 06:52:16;;;;;;;21.05;11.48;;;;;;;0.85;69.64;101327.13;5100484;28;20530;-68
2022/01/11 06:54:42;;;;;;;21.08;10.93;;;;;;;0.86;69.95;101331.50;5103032;28;20030;-67
2022/01/11 06:57:08;;;;;;;21.73;11.52;;;;;;;0.79;70.37;101324.69;5098603;28;20173;-67
2022/01/11 06:59:37;;;;;;;23.92;10.25;;;;;;;0.85;70.50;101345.63;5106274;28;20107;-73
2022/01/11 07:02:06;;;;;;;20.42;10.95;;;;;;;0.87;70.40;101348.22;5100388;28;20028;-73
2022/01/11 07:04:33;;;;;;;19.73;10.02;;;;;;;0.77;70.68;101331.78;5105134;28;20467;-72
2022/01/11 07:06:58;;;;;;;25.52;11.02;;;;;;;0.84;70.80;101354.44;5110918;28;20027;-73
2022/01/11 07:09:24;;;;;;;23.90;11.93;;;;;;;0.85;71.17;101356.19;5109624;28;20030;-72
2022/01/11 07:11:50;;;;;;;23.98;11.27;;;;;;;0.78;71.59;101344.09;5106201;28;20505;-72
2022/01/11 07:14:15;;;;;;;20.38;11.43;;;;;;;0.86;72.47;101357.91;5107152;28;20046;-73
2022/01/11 07:16:43;;;;;;;22.98;11.88;;;;;;;0.86;72.46;101357.91;5109083;27;20121;-72
2022/01/11 07:19:09;;;;;;;23.60;12.27;;;;;;;0.87;72.92;101367.53;5102577;28;20089;-72
2022/01/11 07:21:34;;;;;;;23.67;12.07;;;;;;;0.83;73.72;101360.63;5106476;28;20031;-73
2022/01/11 07:24:01;;;;;;;24.52;12.65;;;;;;;0.83;73.61;101358.00;5104506;28;20037;-73
2022/01/11 07:26:26;;;;;;;21.20;11.27;;;;;;;0.87;73.34;101367.53;5104978;28;20498;-72
2022/01/11 07:28:52;;;;;;;25.98;11.45;;;;;;;0.84;73.69;101369.44;5102330;28;20023;-72
2022/01/11 07:31:17;;;;;;;22.25;11.65;;;;;;;0.85;73.08;101366.75;5098554;28;20438;-73
2022/01/11 07:33:43;;;;;;;25.50;11.38;;;;;;;0.81;73.19;101375.66;5110875;28;20034;-72
2022/01/11 07:36:09;;;;;;;22.60;11.85;;;;;;;0.72;72.94;101354.84;5102432;28;20095;-73
2022/01/11 07:38:34;;;;;;;26.00;12.55;;;;;;;0.76;73.10;101367.03;5104654;28;20036;-72
2022/01/11 07:41:00;;;;;;;22.90;12.20;;;;;;;0.81;72.49;101378.28;5103538;28;20039;-72
2022/01/11 07:43:25;;;;;;;29.70;13.50;;;;;;;0.79;72.94;101374.84;5102645;28;20045;-72
2022/01/11 07:45:51;;;;;;;25.35;12.80;;;;;;;0.77;73.06;101381.94;5103839;28;20036;-73
2022/01/11 07:48:16;;;;;;;26.40;13.10;;;;;;;0.70;73.05;101382.19;5103168;28;20031;-73
2022/01/11 07:50:42;;;;;;;27.52;13.77;;;;;;;0.75;72.85;101388.19;5097887;28;20039;-73
2022/01/11 07:53:07;;;;;;;24.23;13.55;;;;;;;0.66;72.81;101376.16;5107016;28;20032;-73
2022/01/11 07:55:33;;;;;;;27.90;14.00;;;;;;;0.68;72.36;101387.50;5100341;28;20035;-72
2022/01/11 07:57:58;;;;;;;26.60;14.70;;;;;;;0.63;72.31;101389.44;5101322;28;20043;-72
2022/01/11 08:00:24;;;;;;;28.73;14.05;;;;;;;0.68;71.82;101389.31;5102318;28;20045;-72
2022/01/11 08:02:49;;;;;;;27.60;13.90;;;;;;;0.63;72.20;101385.91;5095940;28;20043;-71
2022/01/11 08:05:16;;;;;;;29.65;14.38;;;;;;;0.60;72.15;101391.28;5098142;28;20016;-72
2022/01/11 08:07:42;;;;;;;28.35;14.13;;;;;;;0.53;72.00;101382.72;5095885;28;20028;-70
2022/01/11 08:10:11;;;;;;;30.70;14.65;;;;;;;0.63;71.66;101399.13;5091513;28;20496;-72
2022/01/11 08:12:37;;;;;;;25.50;13.80;;;;;;;0.61;71.42;101399.16;5099708;28;20023;-71
2022/01/11 08:15:03;;;;;;;29.52;14.95;;;;;;;0.64;71.56;101414.06;5098910;28;20028;-72
2022/01/11 08:17:29;;;;;;;28.20;13.90;;;;;;;0.63;71.66;101407.03;5100945;28;20052;-73
2022/01/11 08:19:54;;;;;;;29.13;14.52;;;;;;;0.67;71.63;101413.97;5103485;28;20023;-73
2022/01/11 08:22:20;;;;;;;27.60;14.38;;;;;;;0.63;71.51;101409.69;5103133;28;20028;-71
2022/01/11 08:24:45;;;;;;;29.77;14.90;;;;;;;0.56;71.07;101401.09;5099653;28;20081;-72
2022/01/11 08:27:11;;;;;;;29.35;14.00;;;;;;;0.63;70.98;101414.94;5106810;28;20051;-71
2022/01/11 08:29:39;;;;;;;31.55;13.77;;;;;;;0.63;70.85;101415.84;5099466;28;20126;-72
2022/01/11 08:32:06;;;;;;;27.58;13.88;;;;;;;0.62;70.39;101421.16;5102300;28;20430;-72
2022/01/11 08:34:31;;;;;;;26.48;13.57;;;;;;;0.56;70.72;101416.94;5097498;28;20721;-72
2022/01/11 08:36:58;;;;;;;23.92;12.48;;;;;;;0.58;70.32;101430.06;5096389;28;20102;-71
2022/01/11 08:39:24;;;;;;;26.58;13.25;;;;;;;0.54;70.49;101424.00;5095132;28;20028;-72
2022/01/11 08:41:50;;;;;;;26.88;13.35;;;;;;;0.46;70.26;101409.31;5097818;28;20073;-72
2022/01/11 08:44:15;;;;;;;27.75;13.43;;;;;;;0.54;70.09;101428.44;5098966;28;20100;-71
2022/01/11 08:46:43;;;;;;;22.13;11.98;;;;;;;0.52;69.72;101427.63;5104989;28;20042;-72
2022/01/11 08:49:09;;;;;;;24.73;12.63;;;;;;;0.51;69.68;101428.53;5099669;28;20549;-71
2022/01/11 08:51:34;;;;;;;27.17;14.38;;;;;;;0.51;69.33;101429.38;5097413;28;20028;-72
2022/01/11 08:54:00;;;;;;;25.83;12.13;;;;;;;0.51;69.25;101434.66;5100293;28;20035;-71
2022/01/11 08:56:26;;;;;;;27.98;13.52;;;;;;;0.41;68.78;101419.13;5102625;28;20391;-72
2022/01/11 08:58:52;;;;;;;26.60;12.68;;;;;;;0.47;68.64;101434.78;5096733;28;20020;-72
2022/01/11 09:01:17;;;;;;;25.95;12.80;;;;;;;0.46;68.98;101439.22;5096638;28;20044;-71
2022/01/11 09:03:43;;;;;;;24.30;11.93;;;;;;;0.45;68.56;101434.81;5098305;28;20043;-71
2022/01/11 09:06:09;;;;;;;28.92;13.38;;;;;;;0.44;68.06;101434.88;5102543;28;20107;-72
2022/01/11 09:08:36;;;;;;;29.15;13.77;;;;;;;0.47;68.24;101445.34;5099467;28;20027;-72
2022/01/11 09:11:04;;;;;;;28.17;14.35;;;;;;;0.40;68.48;101430.59;5101913;28;20055;-72
2022/01/11 09:13:30;;;;;;;29.27;13.55;;;;;;;0.48;67.92;101434.75;5100258;28;20036;-71
2022/01/11 09:15:56;;;;;;;29.23;12.65;;;;;;;0.48;68.04;101436.53;5101624;28;20031;-71
2022/01/11 09:18:22;;;;;;;25.75;12.77;;;;;;;0.46;68.29;101444.50;5100283;28;20044;-72
2022/01/11 09:20:48;;;;;;;27.50;12.95;;;;;;;0.39;67.91;101418.31;5100742;28;20096;-71
2022/01/11 09:23:13;;;;;;;29.20;13.73;;;;;;;0.36;67.76;101416.66;5103220;28;20110;-72
2022/01/11 09:25:39;;;;;;;27.63;12.95;;;;;;;0.39;67.09;101413.91;5097121;28;20447;-72
2022/01/11 09:28:05;;;;;;;27.40;13.90;;;;;;;0.46;67.40;101426.03;5098101;28;20068;-71
2022/01/11 09:30:31;;;;;;;26.67;12.85;;;;;;;0.37;67.33;101410.44;5099681;28;20062;-71
2022/01/11 09:32:56;;;;;;;26.23;13.48;;;;;;;0.51;67.14;101428.53;5100515;28;20035;-72
2022/01/11 09:35:22;;;;;;;25.95;12.15;;;;;;;0.44;66.57;101417.28;5100097;28;20435;-72
2022/01/11 09:37:49;;;;;;;22.05;12.27;;;;;;;0.50;66.58;101430.31;5097469;28;20028;-71
2022/01/11 09:40:15;;;;;;;22.52;11.90;;;;;;;0.47;66.56;101429.50;5100409;28;20048;-72
2022/01/11 09:42:42;;;;;;;25.52;12.32;;;;;;;0.50;66.82;101427.66;5096486;28;20502;-72
2022/01/11 09:45:09;;;;;;;23.95;12.50;;;;;;;0.52;65.95;101424.97;5101196;28;20023;-72
2022/01/11 09:47:35;;;;;;;25.85;12.13;;;;;;;0.47;66.42;101418.94;5104919;28;20519;-72
2022/01/11 09:50:02;;;;;;;25.75;12.73;;;;;;;0.50;66.20;101418.88;5100341;28;20391;-72
2022/01/11 09:52:28;;;;;;;23.73;12.80;;;;;;;0.51;66.03;101416.19;5096762;28;20027;-72
2022/01/11 09:54:54;;;;;;;24.50;12.52;;;;;;;0.51;66.47;101417.97;5103739;28;20110;-72
2022/01/11 09:57:19;;;;;;;27.63;12.88;;;;;;;0.53;66.11;101410.84;5106601;28;20103;-72
2022/01/11 09:59:45;;;;;;;27.67;13.27;;;;;;;0.58;66.25;101406.31;5096373;28;20383;-71
2022/01/11 10:02:12;;;;;;;26.30;13.43;;;;;;;0.60;66.22;101397.44;5103878;28;20019;-72
2022/01/11 10:04:38;;;;;;;25.52;12.90;;;;;;;0.71;66.53;101395.31;5104328;28;20388;-72
2022/01/11 10:07:07;;;;;;;25.67;12.50;;;;;;;0.79;66.30;101395.97;5107255;28;20031;-72
2022/01/11 10:09:45;;;;;;;29.15;14.70;;;;;;;0.82;66.63;101387.09;5101037;28;20080;-71
2022/01/11 10:12:12;;;;;;;26.15;12.70;;;;;;;0.91;66.70;101381.53;5101156;28;20028;-71
2022/01/11 10:14:43;;;;;;;21.25;11.43;;;;;;;0.99;66.12;101385.66;5103834;28;20099;-71
2022/01/11 10:17:24;;;;;;;22.17;11.63;;;;;;;1.11;66.56;101393.19;5107854;28;20052;-72
2022/01/11 10:20:14;;;;;;;19.42;10.35;;;;;;;1.21;66.13;101399.91;5099594;28;20088;-72
2022/01/11 10:22:52;;;;;;;19.65;10.38;;;;;;;1.32;65.79;101386.34;5099902;28;20068;-71
2022/01/11 10:25:18;;;;;;;19.52;9.95;;;;;;;1.47;64.81;101394.63;5103464;28;20035;-71
2022/01/11 10:27:51;;;;;;;23.27;10.68;;;;;;;1.53;65.08;101390.91;5095797;28;20491;-71
2022/01/11 10:30:20;;;;;;;17.90;9.90;;;;;;;1.55;64.78;101384.63;5103903;28;20453;-71
2022/01/11 10:32:50;;;;;;;17.52;9.68;;;;;;;1.66;64.01;101401.00;5100147;28;20118;-72
2022/01/11 10:35:23;;;;;;;20.60;9.07;;;;;;;1.76;63.52;101399.78;5103768;28;20073;-71
2022/01/11 10:37:54;;;;;;;16.70;9.07;;;;;;;1.82;63.98;101401.34;5104833;28;20039;-72
2022/01/11 10:40:26;;;;;;;17.05;9.25;;;;;;;1.90;63.32;101399.28;5102891;28;20020;-72
2022/01/11 10:42:57;;;;;;;15.32;9.15;;;;;;;1.98;63.48;101403.41;5099074;28;20023;-72
2022/01/11 10:45:28;;;;;;;15.23;9.18;;;;;;;2.01;63.37;101403.28;5104817;28;20094;-72
2022/01/11 10:47:56;;;;;;;16.08;8.00;;;;;;;2.09;63.72;101405.63;5094420;28;20032;-71
2022/01/11 10:50:28;;;;;;;17.08;8.88;;;;;;;2.13;63.29;101400.19;5102967;28;20035;-71
2022/01/11 10:52:59;;;;;;;18.10;8.65;;;;;;;2.20;63.19;101401.69;5101565;28;20027;-71
2022/01/11 10:55:27;;;;;;;18.13;9.85;;;;;;;2.31;63.14;101410.13;5094574;27;20472;-66
2022/01/11 10:57:56;;;;;;;16.85;9.80;;;;;;;2.40;63.15;101411.56;5098357;28;20035;-67
2022/01/11 11:00:25;;;;;;;15.85;7.93;;;;;;;2.49;62.27;101402.41;5097158;28;20020;-67
2022/01/11 11:02:54;;;;;;;15.63;8.50;;;;;;;2.56;62.61;101411.84;5102708;28;20601;-67
2022/01/11 11:05:23;;;;;;;14.75;8.05;;;;;;;2.64;61.98;101410.63;5107955;28;20479;-68
2022/01/11 11:08:05;;;;;;;11.80;7.22;;;;;;;2.69;61.84;101405.16;5110110;28;20023;-68
2022/01/11 11:10:41;;;;;;;12.95;7.45;;;;;;;2.78;61.89;101407.47;5110189;28;20032;-67
2022/01/11 11:13:09;;;;;;;15.13;7.70;;;;;;;2.77;61.40;101381.91;5099029;28;20503;-68
2022/01/11 11:15:39;;;;;;;14.38;7.90;;;;;;;2.93;61.16;101405.06;5107876;28;20024;-68
2022/01/11 11:18:07;;;;;;;12.05;6.28;;;;;;;2.97;59.99;101400.53;5099352;28;20136;-68
2022/01/11 11:20:35;;;;;;;13.18;6.18;;;;;;;3.00;59.15;101405.69;5103100;28;20419;-67
2022/01/11 11:23:03;;;;;;;11.48;5.82;;;;;;;3.05;59.01;101409.88;5094841;28;20085;-67